sensor_id;sensor_type;location;lat;lon;timestamp;P1;durP1;ratioP1;P2;durP2;ratioP2
10309;SDS011;5200;43.236;27.986;2023-11-18T00:02:22;12.45;;;9.82;;
10309;SDS011;5200;43.236;27.986;2023-11-18T00:04:51;10.95;;;9.32;;
10309;SDS011;5200;43.236;27.986;2023-11-18T00:07:18;12.63;;;10.05;;
10309;SDS011;5200;43.236;27.986;2023-11-18T00:09:44;15.63;;;11.45;;
10309;SDS011;5200;43.236;27.986;2023-11-18T00:12:11;21.77;;;11.23;;
10309;SDS011;5200;43.236;27.986;2023-11-18T00:14:39;16.33;;;14.35;;
10309;SDS011;5200;43.236;27.986;2023-11-18T00:17:07;22.20;;;18.60;;
10309;SDS011;5200;43.236;27.986;2023-11-18T00:19:35;28.70;;;21.75;;
10309;SDS011;5200;43.236;27.986;2023-11-18T00:22:03;23.13;;;20.55;;
10309;SDS011;5200;43.236;27.986;2023-11-18T00:24:31;21.52;;;19.20;;
10309;SDS011;5200;43.236;27.986;2023-11-18T00:26:59;25.55;;;21.60;;
10309;SDS011;5200;43.236;27.986;2023-11-18T00:29:30;24.30;;;21.73;;
10309;SDS011;5200;43.236;27.986;2023-11-18T00:31:58;26.90;;;23.27;;
10309;SDS011;5200;43.236;27.986;2023-11-18T00:34:25;27.33;;;24.48;;
10309;SDS011;5200;43.236;27.986;2023-11-18T00:36:51;28.67;;;25.58;;
10309;SDS011;5200;43.236;27.986;2023-11-18T00:39:20;27.55;;;24.60;;
10309;SDS011;5200;43.236;27.986;2023-11-18T00:41:46;22.67;;;20.33;;
10309;SDS011;5200;43.236;27.986;2023-11-18T00:44:14;19.67;;;17.65;;
10309;SDS011;5200;43.236;27.986;2023-11-18T00:46:41;17.55;;;15.73;;
10309;SDS011;5200;43.236;27.986;2023-11-18T00:49:08;17.23;;;15.35;;
10309;SDS011;5200;43.236;27.986;2023-11-18T00:51:36;16.98;;;15.20;;
10309;SDS011;5200;43.236;27.986;2023-11-18T00:54:03;15.05;;;13.52;;
10309;SDS011;5200;43.236;27.986;2023-11-18T00:56:32;13.32;;;11.95;;
10309;SDS011;5200;43.236;27.986;2023-11-18T00:59:00;11.02;;;9.93;;
10309;SDS011;5200;43.236;27.986;2023-11-18T01:01:27;10.27;;;9.13;;
10309;SDS011;5200;43.236;27.986;2023-11-18T01:03:54;8.70;;;7.80;;
10309;SDS011;5200;43.236;27.986;2023-11-18T01:06:24;8.50;;;7.70;;
10309;SDS011;5200;43.236;27.986;2023-11-18T01:08:51;8.32;;;7.35;;
10309;SDS011;5200;43.236;27.986;2023-11-18T01:11:18;8.57;;;7.22;;
10309;SDS011;5200;43.236;27.986;2023-11-18T01:13:46;7.90;;;7.10;;
10309;SDS011;5200;43.236;27.986;2023-11-18T01:16:13;8.68;;;7.55;;
10309;SDS011;5200;43.236;27.986;2023-11-18T01:18:41;8.68;;;7.15;;
10309;SDS011;5200;43.236;27.986;2023-11-18T01:21:08;8.07;;;7.28;;
10309;SDS011;5200;43.236;27.986;2023-11-18T01:23:34;8.07;;;7.35;;
10309;SDS011;5200;43.236;27.986;2023-11-18T01:26:02;8.73;;;7.18;;
10309;SDS011;5200;43.236;27.986;2023-11-18T01:28:30;8.07;;;7.28;;
10309;SDS011;5200;43.236;27.986;2023-11-18T01:30:59;7.85;;;7.10;;
10309;SDS011;5200;43.236;27.986;2023-11-18T01:33:26;7.80;;;7.05;;
10309;SDS011;5200;43.236;27.986;2023-11-18T01:35:53;7.88;;;7.07;;
10309;SDS011;5200;43.236;27.986;2023-11-18T01:38:20;7.30;;;6.70;;
10309;SDS011;5200;43.236;27.986;2023-11-18T01:40:47;9.00;;;7.15;;
10309;SDS011;5200;43.236;27.986;2023-11-18T01:43:14;7.00;;;6.05;;
10309;SDS011;5200;43.236;27.986;2023-11-18T01:45:41;6.75;;;6.05;;
10309;SDS011;5200;43.236;27.986;2023-11-18T01:48:09;6.70;;;6.00;;
10309;SDS011;5200;43.236;27.986;2023-11-18T01:50:38;9.05;;;7.03;;
10309;SDS011;5200;43.236;27.986;2023-11-18T01:53:07;7.28;;;6.55;;
10309;SDS011;5200;43.236;27.986;2023-11-18T01:55:35;10.30;;;7.10;;
10309;SDS011;5200;43.236;27.986;2023-11-18T01:58:03;7.85;;;7.05;;
10309;SDS011;5200;43.236;27.986;2023-11-18T02:00:35;9.32;;;7.70;;
10309;SDS011;5200;43.236;27.986;2023-11-18T02:03:04;9.68;;;8.43;;
10309;SDS011;5200;43.236;27.986;2023-11-18T02:05:32;9.57;;;8.55;;
10309;SDS011;5200;43.236;27.986;2023-11-18T02:08:00;10.27;;;8.82;;
10309;SDS011;5200;43.236;27.986;2023-11-18T02:10:29;10.35;;;9.35;;
10309;SDS011;5200;43.236;27.986;2023-11-18T02:12:57;11.52;;;10.32;;
10309;SDS011;5200;43.236;27.986;2023-11-18T02:15:33;13.73;;;11.60;;
10309;SDS011;5200;43.236;27.986;2023-11-18T02:18:02;12.30;;;11.10;;
10309;SDS011;5200;43.236;27.986;2023-11-18T02:20:32;13.38;;;11.93;;
10309;SDS011;5200;43.236;27.986;2023-11-18T02:23:00;13.88;;;11.98;;
10309;SDS011;5200;43.236;27.986;2023-11-18T02:25:28;19.02;;;13.40;;
10309;SDS011;5200;43.236;27.986;2023-11-18T02:28:00;15.93;;;13.20;;
10309;SDS011;5200;43.236;27.986;2023-11-18T02:30:27;16.50;;;12.90;;
10309;SDS011;5200;43.236;27.986;2023-11-18T02:32:58;15.15;;;13.35;;
10309;SDS011;5200;43.236;27.986;2023-11-18T02:35:31;16.63;;;14.13;;
10309;SDS011;5200;43.236;27.986;2023-11-18T02:38:02;17.13;;;14.10;;
10309;SDS011;5200;43.236;27.986;2023-11-18T02:40:33;14.55;;;13.00;;
10309;SDS011;5200;43.236;27.986;2023-11-18T02:43:04;13.95;;;12.40;;
10309;SDS011;5200;43.236;27.986;2023-11-18T02:45:31;16.33;;;12.77;;
10309;SDS011;5200;43.236;27.986;2023-11-18T02:48:01;14.63;;;13.13;;
10309;SDS011;5200;43.236;27.986;2023-11-18T02:50:28;16.92;;;13.40;;
10309;SDS011;5200;43.236;27.986;2023-11-18T02:52:55;16.20;;;12.85;;
10309;SDS011;5200;43.236;27.986;2023-11-18T02:55:22;19.60;;;13.85;;
10309;SDS011;5200;43.236;27.986;2023-11-18T02:57:49;14.35;;;12.85;;
10309;SDS011;5200;43.236;27.986;2023-11-18T03:00:19;18.40;;;13.73;;
10309;SDS011;5200;43.236;27.986;2023-11-18T03:02:46;16.30;;;13.25;;
10309;SDS011;5200;43.236;27.986;2023-11-18T03:05:15;18.13;;;13.90;;
10309;SDS011;5200;43.236;27.986;2023-11-18T03:07:42;15.90;;;13.90;;
10309;SDS011;5200;43.236;27.986;2023-11-18T03:10:12;16.70;;;14.00;;
10309;SDS011;5200;43.236;27.986;2023-11-18T03:12:46;17.15;;;14.18;;
10309;SDS011;5200;43.236;27.986;2023-11-18T03:15:13;18.35;;;14.05;;
10309;SDS011;5200;43.236;27.986;2023-11-18T03:17:44;15.63;;;12.77;;
10309;SDS011;5200;43.236;27.986;2023-11-18T03:20:13;20.40;;;13.23;;
10309;SDS011;5200;43.236;27.986;2023-11-18T03:22:42;14.95;;;13.38;;
10309;SDS011;5200;43.236;27.986;2023-11-18T03:25:10;14.32;;;12.80;;
10309;SDS011;5200;43.236;27.986;2023-11-18T03:27:37;14.88;;;13.43;;
10309;SDS011;5200;43.236;27.986;2023-11-18T03:30:05;15.43;;;13.82;;
10309;SDS011;5200;43.236;27.986;2023-11-18T03:32:33;14.60;;;13.10;;
10309;SDS011;5200;43.236;27.986;2023-11-18T03:35:02;16.45;;;13.10;;
10309;SDS011;5200;43.236;27.986;2023-11-18T03:37:29;16.45;;;13.48;;
10309;SDS011;5200;43.236;27.986;2023-11-18T03:39:56;17.23;;;13.15;;
10309;SDS011;5200;43.236;27.986;2023-11-18T03:42:23;14.60;;;13.10;;
10309;SDS011;5200;43.236;27.986;2023-11-18T03:44:50;14.82;;;13.18;;
10309;SDS011;5200;43.236;27.986;2023-11-18T03:47:17;15.30;;;13.40;;
10309;SDS011;5200;43.236;27.986;2023-11-18T03:49:44;15.23;;;13.30;;
10309;SDS011;5200;43.236;27.986;2023-11-18T03:52:12;16.77;;;13.85;;
10309;SDS011;5200;43.236;27.986;2023-11-18T03:54:39;15.32;;;13.43;;
10309;SDS011;5200;43.236;27.986;2023-11-18T03:57:06;18.40;;;14.00;;
10309;SDS011;5200;43.236;27.986;2023-11-18T03:59:33;16.02;;;14.23;;
10309;SDS011;5200;43.236;27.986;2023-11-18T04:02:00;17.83;;;15.85;;
10309;SDS011;5200;43.236;27.986;2023-11-18T04:04:27;17.25;;;14.95;;
10309;SDS011;5200;43.236;27.986;2023-11-18T04:06:55;18.42;;;15.27;;
10309;SDS011;5200;43.236;27.986;2023-11-18T04:09:23;24.08;;;17.17;;
10309;SDS011;5200;43.236;27.986;2023-11-18T04:11:51;17.23;;;15.43;;
10309;SDS011;5200;43.236;27.986;2023-11-18T04:14:18;18.75;;;15.43;;
10309;SDS011;5200;43.236;27.986;2023-11-18T04:16:46;19.95;;;16.10;;
10309;SDS011;5200;43.236;27.986;2023-11-18T04:19:13;20.45;;;15.90;;
10309;SDS011;5200;43.236;27.986;2023-11-18T04:21:40;19.75;;;15.25;;
10309;SDS011;5200;43.236;27.986;2023-11-18T04:24:08;17.52;;;14.63;;
10309;SDS011;5200;43.236;27.986;2023-11-18T04:26:37;15.60;;;13.32;;
10309;SDS011;5200;43.236;27.986;2023-11-18T04:29:04;13.55;;;12.15;;
10309;SDS011;5200;43.236;27.986;2023-11-18T04:31:30;12.40;;;11.20;;
10309;SDS011;5200;43.236;27.986;2023-11-18T04:33:59;12.75;;;11.48;;
10309;SDS011;5200;43.236;27.986;2023-11-18T04:36:26;12.68;;;11.38;;
10309;SDS011;5200;43.236;27.986;2023-11-18T04:38:54;13.07;;;11.77;;
10309;SDS011;5200;43.236;27.986;2023-11-18T04:41:21;13.77;;;11.13;;
10309;SDS011;5200;43.236;27.986;2023-11-18T04:43:49;12.68;;;11.38;;
10309;SDS011;5200;43.236;27.986;2023-11-18T04:46:16;11.70;;;10.25;;
10309;SDS011;5200;43.236;27.986;2023-11-18T04:48:44;12.70;;;10.18;;
10309;SDS011;5200;43.236;27.986;2023-11-18T04:51:11;11.52;;;10.43;;
10309;SDS011;5200;43.236;27.986;2023-11-18T04:53:39;10.82;;;9.70;;
10309;SDS011;5200;43.236;27.986;2023-11-18T04:56:06;13.38;;;10.98;;
10309;SDS011;5200;43.236;27.986;2023-11-18T04:58:35;13.75;;;11.18;;
10309;SDS011;5200;43.236;27.986;2023-11-18T05:01:04;13.98;;;11.77;;
10309;SDS011;5200;43.236;27.986;2023-11-18T05:03:31;13.07;;;11.20;;
10309;SDS011;5200;43.236;27.986;2023-11-18T05:05:58;14.18;;;12.30;;
10309;SDS011;5200;43.236;27.986;2023-11-18T05:08:25;15.82;;;11.93;;
10309;SDS011;5200;43.236;27.986;2023-11-18T05:10:52;14.13;;;12.30;;
10309;SDS011;5200;43.236;27.986;2023-11-18T05:13:19;16.73;;;12.48;;
10309;SDS011;5200;43.236;27.986;2023-11-18T05:15:47;14.50;;;12.52;;
10309;SDS011;5200;43.236;27.986;2023-11-18T05:18:16;17.40;;;13.20;;
10309;SDS011;5200;43.236;27.986;2023-11-18T05:20:43;15.00;;;12.32;;
10309;SDS011;5200;43.236;27.986;2023-11-18T05:23:11;16.48;;;13.00;;
10309;SDS011;5200;43.236;27.986;2023-11-18T05:25:39;15.52;;;12.70;;
10309;SDS011;5200;43.236;27.986;2023-11-18T05:28:06;14.63;;;12.95;;
10309;SDS011;5200;43.236;27.986;2023-11-18T05:30:33;15.10;;;13.40;;
10309;SDS011;5200;43.236;27.986;2023-11-18T05:33:01;14.95;;;12.30;;
10309;SDS011;5200;43.236;27.986;2023-11-18T05:35:32;13.57;;;12.00;;
10309;SDS011;5200;43.236;27.986;2023-11-18T05:38:00;16.90;;;13.43;;
10309;SDS011;5200;43.236;27.986;2023-11-18T05:40:28;16.67;;;13.88;;
10309;SDS011;5200;43.236;27.986;2023-11-18T05:42:55;15.27;;;12.55;;
10309;SDS011;5200;43.236;27.986;2023-11-18T05:45:24;13.15;;;11.85;;
10309;SDS011;5200;43.236;27.986;2023-11-18T05:47:57;18.40;;;12.90;;
10309;SDS011;5200;43.236;27.986;2023-11-18T05:50:24;13.18;;;11.68;;
10309;SDS011;5200;43.236;27.986;2023-11-18T05:52:52;13.27;;;11.88;;
10309;SDS011;5200;43.236;27.986;2023-11-18T05:55:20;14.43;;;11.20;;
10309;SDS011;5200;43.236;27.986;2023-11-18T05:57:47;14.70;;;13.20;;
10309;SDS011;5200;43.236;27.986;2023-11-18T06:00:14;15.52;;;12.90;;
10309;SDS011;5200;43.236;27.986;2023-11-18T06:02:44;16.33;;;13.43;;
10309;SDS011;5200;43.236;27.986;2023-11-18T06:05:11;15.45;;;13.77;;
10309;SDS011;5200;43.236;27.986;2023-11-18T06:07:38;14.52;;;12.80;;
10309;SDS011;5200;43.236;27.986;2023-11-18T06:10:09;16.15;;;13.43;;
10309;SDS011;5200;43.236;27.986;2023-11-18T06:12:37;16.98;;;13.68;;
10309;SDS011;5200;43.236;27.986;2023-11-18T06:15:06;15.70;;;13.07;;
10309;SDS011;5200;43.236;27.986;2023-11-18T06:17:34;13.43;;;12.10;;
10309;SDS011;5200;43.236;27.986;2023-11-18T06:20:02;13.57;;;11.68;;
10309;SDS011;5200;43.236;27.986;2023-11-18T06:22:31;14.02;;;11.40;;
10309;SDS011;5200;43.236;27.986;2023-11-18T06:24:58;12.02;;;10.82;;
10309;SDS011;5200;43.236;27.986;2023-11-18T06:27:26;11.43;;;10.30;;
10309;SDS011;5200;43.236;27.986;2023-11-18T06:29:54;11.38;;;8.80;;
10309;SDS011;5200;43.236;27.986;2023-11-18T06:32:21;10.93;;;9.82;;
10309;SDS011;5200;43.236;27.986;2023-11-18T06:34:51;10.13;;;9.13;;
10309;SDS011;5200;43.236;27.986;2023-11-18T06:37:18;9.90;;;8.93;;
10309;SDS011;5200;43.236;27.986;2023-11-18T06:39:45;10.55;;;9.45;;
10309;SDS011;5200;43.236;27.986;2023-11-18T06:42:13;10.35;;;9.35;;
10309;SDS011;5200;43.236;27.986;2023-11-18T06:44:42;10.35;;;9.25;;
10309;SDS011;5200;43.236;27.986;2023-11-18T06:47:09;10.93;;;8.38;;
10309;SDS011;5200;43.236;27.986;2023-11-18T06:49:37;9.23;;;7.70;;
10309;SDS011;5200;43.236;27.986;2023-11-18T06:52:06;10.05;;;8.90;;
10309;SDS011;5200;43.236;27.986;2023-11-18T06:54:37;9.02;;;8.20;;
10309;SDS011;5200;43.236;27.986;2023-11-18T06:57:03;9.00;;;8.10;;
10309;SDS011;5200;43.236;27.986;2023-11-18T06:59:32;9.73;;;8.82;;
10309;SDS011;5200;43.236;27.986;2023-11-18T07:02:01;9.30;;;8.27;;
10309;SDS011;5200;43.236;27.986;2023-11-18T07:04:31;8.18;;;7.38;;
10309;SDS011;5200;43.236;27.986;2023-11-18T07:06:57;8.77;;;7.97;;
10309;SDS011;5200;43.236;27.986;2023-11-18T07:09:24;7.57;;;6.78;;
10309;SDS011;5200;43.236;27.986;2023-11-18T07:11:51;7.53;;;6.82;;
10309;SDS011;5200;43.236;27.986;2023-11-18T07:14:18;8.77;;;7.85;;
10309;SDS011;5200;43.236;27.986;2023-11-18T07:16:45;8.60;;;7.45;;
10309;SDS011;5200;43.236;27.986;2023-11-18T07:19:14;8.32;;;7.53;;
10309;SDS011;5200;43.236;27.986;2023-11-18T07:21:45;8.80;;;6.85;;
10309;SDS011;5200;43.236;27.986;2023-11-18T07:24:12;8.38;;;7.55;;
10309;SDS011;5200;43.236;27.986;2023-11-18T07:26:39;7.78;;;7.07;;
10309;SDS011;5200;43.236;27.986;2023-11-18T07:29:06;7.63;;;6.93;;
10309;SDS011;5200;43.236;27.986;2023-11-18T07:31:33;7.78;;;7.07;;
10309;SDS011;5200;43.236;27.986;2023-11-18T07:34:01;7.43;;;6.70;;
10309;SDS011;5200;43.236;27.986;2023-11-18T07:36:32;7.35;;;6.65;;
10309;SDS011;5200;43.236;27.986;2023-11-18T07:38:59;7.53;;;6.68;;
10309;SDS011;5200;43.236;27.986;2023-11-18T07:41:27;8.38;;;7.57;;
10309;SDS011;5200;43.236;27.986;2023-11-18T07:43:56;7.47;;;6.32;;
10309;SDS011;5200;43.236;27.986;2023-11-18T07:46:23;7.80;;;6.30;;
10309;SDS011;5200;43.236;27.986;2023-11-18T07:48:49;8.52;;;6.07;;
10309;SDS011;5200;43.236;27.986;2023-11-18T07:51:17;6.55;;;5.95;;
10309;SDS011;5200;43.236;27.986;2023-11-18T07:53:48;6.78;;;6.18;;
10309;SDS011;5200;43.236;27.986;2023-11-18T07:56:15;6.20;;;5.60;;
10309;SDS011;5200;43.236;27.986;2023-11-18T07:58:42;6.28;;;5.78;;
10309;SDS011;5200;43.236;27.986;2023-11-18T08:01:10;5.70;;;5.20;;
10309;SDS011;5200;43.236;27.986;2023-11-18T08:03:37;6.10;;;5.60;;
10309;SDS011;5200;43.236;27.986;2023-11-18T08:06:06;6.25;;;5.75;;
10309;SDS011;5200;43.236;27.986;2023-11-18T08:08:33;6.00;;;5.50;;
10309;SDS011;5200;43.236;27.986;2023-11-18T08:11:03;5.95;;;5.45;;
10309;SDS011;5200;43.236;27.986;2023-11-18T08:13:30;5.80;;;5.40;;
10309;SDS011;5200;43.236;27.986;2023-11-18T08:15:57;6.40;;;5.90;;
10309;SDS011;5200;43.236;27.986;2023-11-18T08:18:24;6.18;;;5.60;;
10309;SDS011;5200;43.236;27.986;2023-11-18T08:20:52;5.30;;;4.90;;
10309;SDS011;5200;43.236;27.986;2023-11-18T08:23:20;5.60;;;5.18;;
10309;SDS011;5200;43.236;27.986;2023-11-18T08:25:47;4.88;;;4.47;;
10309;SDS011;5200;43.236;27.986;2023-11-18T08:28:17;5.30;;;4.90;;
10309;SDS011;5200;43.236;27.986;2023-11-18T08:30:44;4.68;;;4.28;;
10309;SDS011;5200;43.236;27.986;2023-11-18T08:33:13;5.30;;;4.90;;
10309;SDS011;5200;43.236;27.986;2023-11-18T08:35:40;4.30;;;3.90;;
10309;SDS011;5200;43.236;27.986;2023-11-18T08:38:08;4.13;;;3.83;;
10309;SDS011;5200;43.236;27.986;2023-11-18T08:40:37;3.88;;;3.58;;
10309;SDS011;5200;43.236;27.986;2023-11-18T08:43:04;4.60;;;4.28;;
10309;SDS011;5200;43.236;27.986;2023-11-18T08:45:34;4.35;;;3.95;;
10309;SDS011;5200;43.236;27.986;2023-11-18T08:48:03;3.45;;;3.25;;
10309;SDS011;5200;43.236;27.986;2023-11-18T08:50:32;3.78;;;3.47;;
10309;SDS011;5200;43.236;27.986;2023-11-18T08:52:59;4.15;;;3.78;;
10309;SDS011;5200;43.236;27.986;2023-11-18T08:55:29;3.70;;;3.40;;
10309;SDS011;5200;43.236;27.986;2023-11-18T08:58:12;4.20;;;3.90;;
10309;SDS011;5200;43.236;27.986;2023-11-18T09:00:45;3.97;;;3.67;;
10309;SDS011;5200;43.236;27.986;2023-11-18T09:03:13;3.58;;;3.28;;
10309;SDS011;5200;43.236;27.986;2023-11-18T09:05:43;4.00;;;3.70;;
10309;SDS011;5200;43.236;27.986;2023-11-18T09:08:22;4.00;;;3.70;;
10309;SDS011;5200;43.236;27.986;2023-11-18T09:10:49;4.20;;;3.90;;
10309;SDS011;5200;43.236;27.986;2023-11-18T09:13:19;3.88;;;3.58;;
10309;SDS011;5200;43.236;27.986;2023-11-18T09:15:49;3.33;;;3.10;;
10309;SDS011;5200;43.236;27.986;2023-11-18T09:18:16;4.03;;;3.72;;
10309;SDS011;5200;43.236;27.986;2023-11-18T09:20:45;3.80;;;3.50;;
10309;SDS011;5200;43.236;27.986;2023-11-18T09:23:12;3.35;;;3.15;;
10309;SDS011;5200;43.236;27.986;2023-11-18T09:25:41;3.50;;;3.20;;
10309;SDS011;5200;43.236;27.986;2023-11-18T09:28:12;3.47;;;3.28;;
10309;SDS011;5200;43.236;27.986;2023-11-18T09:30:40;4.00;;;3.70;;
10309;SDS011;5200;43.236;27.986;2023-11-18T09:33:16;3.83;;;3.53;;
10309;SDS011;5200;43.236;27.986;2023-11-18T09:35:51;4.25;;;3.85;;
10309;SDS011;5200;43.236;27.986;2023-11-18T09:38:21;4.35;;;3.55;;
10309;SDS011;5200;43.236;27.986;2023-11-18T09:40:49;4.43;;;4.03;;
10309;SDS011;5200;43.236;27.986;2023-11-18T09:43:19;3.90;;;3.60;;
10309;SDS011;5200;43.236;27.986;2023-11-18T09:45:47;5.07;;;3.90;;
10309;SDS011;5200;43.236;27.986;2023-11-18T09:48:18;4.07;;;3.67;;
10309;SDS011;5200;43.236;27.986;2023-11-18T09:50:47;3.75;;;3.45;;
10309;SDS011;5200;43.236;27.986;2023-11-18T09:53:16;3.88;;;3.58;;
10309;SDS011;5200;43.236;27.986;2023-11-18T09:55:47;3.70;;;3.40;;
10309;SDS011;5200;43.236;27.986;2023-11-18T09:58:23;2.85;;;2.65;;
10309;SDS011;5200;43.236;27.986;2023-11-18T10:00:51;3.55;;;3.25;;
10309;SDS011;5200;43.236;27.986;2023-11-18T10:03:29;3.22;;;3.03;;
10309;SDS011;5200;43.236;27.986;2023-11-18T10:05:56;3.13;;;2.90;;
10309;SDS011;5200;43.236;27.986;2023-11-18T10:08:30;3.20;;;3.00;;
10309;SDS011;5200;43.236;27.986;2023-11-18T10:10:57;2.50;;;2.35;;
10309;SDS011;5200;43.236;27.986;2023-11-18T10:13:31;2.97;;;2.75;;
10309;SDS011;5200;43.236;27.986;2023-11-18T10:16:00;2.95;;;2.75;;
10309;SDS011;5200;43.236;27.986;2023-11-18T10:18:31;3.33;;;2.97;;
10309;SDS011;5200;43.236;27.986;2023-11-18T10:21:02;4.20;;;2.50;;
10309;SDS011;5200;43.236;27.986;2023-11-18T10:23:33;3.47;;;2.63;;
10309;SDS011;5200;43.236;27.986;2023-11-18T10:26:02;3.25;;;2.95;;
10309;SDS011;5200;43.236;27.986;2023-11-18T10:28:32;2.90;;;2.70;;
10309;SDS011;5200;43.236;27.986;2023-11-18T10:31:03;3.58;;;2.60;;
10309;SDS011;5200;43.236;27.986;2023-11-18T10:33:36;3.50;;;2.88;;
10309;SDS011;5200;43.236;27.986;2023-11-18T10:36:06;3.88;;;2.90;;
10309;SDS011;5200;43.236;27.986;2023-11-18T10:38:47;4.15;;;2.72;;
10309;SDS011;5200;43.236;27.986;2023-11-18T10:41:17;3.05;;;2.85;;
10309;SDS011;5200;43.236;27.986;2023-11-18T10:43:45;3.03;;;2.72;;
10309;SDS011;5200;43.236;27.986;2023-11-18T10:46:13;3.38;;;2.78;;
10309;SDS011;5200;43.236;27.986;2023-11-18T10:48:42;2.72;;;2.53;;
10309;SDS011;5200;43.236;27.986;2023-11-18T10:51:13;4.82;;;2.60;;
10309;SDS011;5200;43.236;27.986;2023-11-18T10:53:41;2.70;;;2.50;;
10309;SDS011;5200;43.236;27.986;2023-11-18T10:56:18;4.07;;;2.88;;
10309;SDS011;5200;43.236;27.986;2023-11-18T10:58:51;3.22;;;3.00;;
10309;SDS011;5200;43.236;27.986;2023-11-18T11:01:26;3.83;;;2.80;;
10309;SDS011;5200;43.236;27.986;2023-11-18T11:03:56;3.53;;;2.88;;
10309;SDS011;5200;43.236;27.986;2023-11-18T11:06:29;2.90;;;2.70;;
10309;SDS011;5200;43.236;27.986;2023-11-18T11:08:58;2.80;;;2.60;;
10309;SDS011;5200;43.236;27.986;2023-11-18T11:11:25;2.75;;;2.55;;
10309;SDS011;5200;43.236;27.986;2023-11-18T11:14:00;2.15;;;2.00;;
10309;SDS011;5200;43.236;27.986;2023-11-18T11:16:32;2.75;;;2.55;;
10309;SDS011;5200;43.236;27.986;2023-11-18T11:19:05;2.70;;;2.50;;
10309;SDS011;5200;43.236;27.986;2023-11-18T11:21:36;2.63;;;2.35;;
10309;SDS011;5200;43.236;27.986;2023-11-18T11:24:15;2.90;;;2.00;;
10309;SDS011;5200;43.236;27.986;2023-11-18T11:27:00;2.40;;;2.20;;
10309;SDS011;5200;43.236;27.986;2023-11-18T11:29:44;2.25;;;2.03;;
10309;SDS011;5200;43.236;27.986;2023-11-18T11:32:18;3.63;;;2.10;;
10309;SDS011;5200;43.236;27.986;2023-11-18T11:34:59;2.50;;;2.30;;
10309;SDS011;5200;43.236;27.986;2023-11-18T11:37:32;3.35;;;1.90;;
10309;SDS011;5200;43.236;27.986;2023-11-18T11:40:00;2.70;;;1.67;;
10309;SDS011;5200;43.236;27.986;2023-11-18T11:42:34;1.95;;;1.85;;
10309;SDS011;5200;43.236;27.986;2023-11-18T11:45:01;1.73;;;1.63;;
10309;SDS011;5200;43.236;27.986;2023-11-18T11:47:28;1.55;;;1.45;;
10309;SDS011;5200;43.236;27.986;2023-11-18T11:50:05;4.13;;;1.90;;
10309;SDS011;5200;43.236;27.986;2023-11-18T11:52:39;5.28;;;1.88;;
10309;SDS011;5200;43.236;27.986;2023-11-18T11:55:15;3.30;;;1.80;;
10309;SDS011;5200;43.236;27.986;2023-11-18T11:57:50;2.03;;;1.92;;
10309;SDS011;5200;43.236;27.986;2023-11-18T12:00:18;2.30;;;1.90;;
10309;SDS011;5200;43.236;27.986;2023-11-18T12:02:51;1.75;;;1.65;;
10309;SDS011;5200;43.236;27.986;2023-11-18T12:05:21;2.08;;;1.98;;
10309;SDS011;5200;43.236;27.986;2023-11-18T12:07:52;4.82;;;2.40;;
10309;SDS011;5200;43.236;27.986;2023-11-18T12:10:20;2.08;;;1.88;;
10309;SDS011;5200;43.236;27.986;2023-11-18T12:12:47;2.85;;;2.10;;
10309;SDS011;5200;43.236;27.986;2023-11-18T12:15:21;2.10;;;2.00;;
10309;SDS011;5200;43.236;27.986;2023-11-18T12:18:19;1.88;;;1.77;;
10309;SDS011;5200;43.236;27.986;2023-11-18T12:20:48;1.90;;;1.80;;
10309;SDS011;5200;43.236;27.986;2023-11-18T12:23:19;2.40;;;2.08;;
10309;SDS011;5200;43.236;27.986;2023-11-18T12:25:48;2.67;;;2.13;;
10309;SDS011;5200;43.236;27.986;2023-11-18T12:28:19;2.40;;;2.20;;
10309;SDS011;5200;43.236;27.986;2023-11-18T12:30:52;1.92;;;1.83;;
10309;SDS011;5200;43.236;27.986;2023-11-18T12:33:21;4.45;;;3.03;;
10309;SDS011;5200;43.236;27.986;2023-11-18T12:42:37;1.70;;;1.60;;
10309;SDS011;5200;43.236;27.986;2023-11-18T12:48:41;1.88;;;1.00;;
10309;SDS011;5200;43.236;27.986;2023-11-18T12:51:11;1.08;;;0.90;;
10309;SDS011;5200;43.236;27.986;2023-11-18T12:53:45;1.10;;;1.10;;
10309;SDS011;5200;43.236;27.986;2023-11-18T12:56:16;2.45;;;0.90;;
10309;SDS011;5200;43.236;27.986;2023-11-18T12:58:50;0.70;;;0.70;;
10309;SDS011;5200;43.236;27.986;2023-11-18T13:01:17;1.25;;;1.00;;
10309;SDS011;5200;43.236;27.986;2023-11-18T13:03:44;1.83;;;0.70;;
10309;SDS011;5200;43.236;27.986;2023-11-18T13:06:12;1.08;;;0.70;;
10309;SDS011;5200;43.236;27.986;2023-11-18T13:08:39;1.60;;;1.00;;
10309;SDS011;5200;43.236;27.986;2023-11-18T13:11:07;1.02;;;0.73;;
10309;SDS011;5200;43.236;27.986;2023-11-18T13:13:40;0.70;;;0.70;;
10309;SDS011;5200;43.236;27.986;2023-11-18T13:16:09;0.85;;;0.85;;
10309;SDS011;5200;43.236;27.986;2023-11-18T13:18:41;1.05;;;0.77;;
10309;SDS011;5200;43.236;27.986;2023-11-18T13:21:13;0.60;;;0.60;;
10309;SDS011;5200;43.236;27.986;2023-11-18T13:23:41;4.28;;;1.00;;
10309;SDS011;5200;43.236;27.986;2023-11-18T13:26:11;2.13;;;0.68;;
10309;SDS011;5200;43.236;27.986;2023-11-18T13:28:38;0.80;;;0.80;;
10309;SDS011;5200;43.236;27.986;2023-11-18T13:31:05;0.70;;;0.70;;
10309;SDS011;5200;43.236;27.986;2023-11-18T13:33:37;0.50;;;0.50;;
10309;SDS011;5200;43.236;27.986;2023-11-18T13:36:05;0.93;;;0.70;;
10309;SDS011;5200;43.236;27.986;2023-11-18T13:38:35;1.70;;;1.10;;
10309;SDS011;5200;43.236;27.986;2023-11-18T13:41:03;0.70;;;0.70;;
10309;SDS011;5200;43.236;27.986;2023-11-18T13:43:40;0.63;;;0.63;;
10309;SDS011;5200;43.236;27.986;2023-11-18T13:46:09;0.98;;;0.98;;
10309;SDS011;5200;43.236;27.986;2023-11-18T13:48:40;0.73;;;0.73;;
10309;SDS011;5200;43.236;27.986;2023-11-18T13:51:10;0.40;;;0.40;;
10309;SDS011;5200;43.236;27.986;2023-11-18T13:53:39;0.50;;;0.40;;
10309;SDS011;5200;43.236;27.986;2023-11-18T13:56:08;0.70;;;0.70;;
10309;SDS011;5200;43.236;27.986;2023-11-18T13:58:36;0.52;;;0.52;;
10309;SDS011;5200;43.236;27.986;2023-11-18T14:01:04;0.52;;;0.52;;
10309;SDS011;5200;43.236;27.986;2023-11-18T14:03:34;1.40;;;0.40;;
10309;SDS011;5200;43.236;27.986;2023-11-18T14:06:05;0.65;;;0.47;;
10309;SDS011;5200;43.236;27.986;2023-11-18T14:08:32;0.70;;;0.70;;
10309;SDS011;5200;43.236;27.986;2023-11-18T14:11:00;1.00;;;0.40;;
10309;SDS011;5200;43.236;27.986;2023-11-18T14:13:27;0.57;;;0.57;;
10309;SDS011;5200;43.236;27.986;2023-11-18T14:15:56;1.20;;;1.00;;
10309;SDS011;5200;43.236;27.986;2023-11-18T14:18:24;1.67;;;1.23;;
10309;SDS011;5200;43.236;27.986;2023-11-18T14:20:53;1.65;;;0.80;;
10309;SDS011;5200;43.236;27.986;2023-11-18T14:23:21;0.65;;;0.65;;
10309;SDS011;5200;43.236;27.986;2023-11-18T14:25:48;0.73;;;0.73;;
10309;SDS011;5200;43.236;27.986;2023-11-18T14:28:15;1.73;;;0.60;;
10309;SDS011;5200;43.236;27.986;2023-11-18T14:30:43;0.60;;;0.60;;
10309;SDS011;5200;43.236;27.986;2023-11-18T14:33:09;1.85;;;0.93;;
10309;SDS011;5200;43.236;27.986;2023-11-18T14:35:36;0.32;;;0.32;;
10309;SDS011;5200;43.236;27.986;2023-11-18T14:38:05;0.40;;;0.40;;
10309;SDS011;5200;43.236;27.986;2023-11-18T14:40:35;0.50;;;0.50;;
10309;SDS011;5200;43.236;27.986;2023-11-18T14:43:02;0.73;;;0.65;;
10309;SDS011;5200;43.236;27.986;2023-11-18T14:45:29;0.85;;;0.82;;
10309;SDS011;5200;43.236;27.986;2023-11-18T14:47:57;0.60;;;0.60;;
10309;SDS011;5200;43.236;27.986;2023-11-18T14:50:25;0.98;;;0.80;;
10309;SDS011;5200;43.236;27.986;2023-11-18T15:10:25;0.70;;;0.70;;
10309;SDS011;5200;43.236;27.986;2023-11-18T15:12:53;1.95;;;0.70;;
10309;SDS011;5200;43.236;27.986;2023-11-18T15:15:23;1.48;;;0.60;;
10309;SDS011;5200;43.236;27.986;2023-11-18T15:17:56;0.80;;;0.80;;